sensor_id;sensor_type;location;lat;lon;timestamp;P1;durP1;ratioP1;P2;durP2;ratioP2
9481;SDS011;4779;48.062;11.672;2023-04-06T00:00:23;5.37;;;4.53;;
9481;SDS011;4779;48.062;11.672;2023-04-06T00:02:51;5.27;;;4.77;;
9481;SDS011;4779;48.062;11.672;2023-04-06T00:05:18;5.17;;;4.50;;
9481;SDS011;4779;48.062;11.672;2023-04-06T00:07:45;6.13;;;4.93;;
9481;SDS011;4779;48.062;11.672;2023-04-06T00:10:12;4.77;;;4.27;;
9481;SDS011;4779;48.062;11.672;2023-04-06T00:12:39;5.70;;;4.77;;
9481;SDS011;4779;48.062;11.672;2023-04-06T00:15:07;5.63;;;5.03;;
9481;SDS011;4779;48.062;11.672;2023-04-06T00:17:36;4.90;;;4.40;;
9481;SDS011;4779;48.062;11.672;2023-04-06T00:20:03;5.47;;;4.73;;
9481;SDS011;4779;48.062;11.672;2023-04-06T00:22:31;6.57;;;4.97;;
9481;SDS011;4779;48.062;11.672;2023-04-06T00:24:58;5.70;;;5.10;;
9481;SDS011;4779;48.062;11.672;2023-04-06T00:27:25;6.53;;;4.97;;
9481;SDS011;4779;48.062;11.672;2023-04-06T00:29:52;5.60;;;5.00;;
9481;SDS011;4779;48.062;11.672;2023-04-06T00:32:19;5.50;;;4.67;;
9481;SDS011;4779;48.062;11.672;2023-04-06T00:34:48;5.60;;;5.00;;
9481;SDS011;4779;48.062;11.672;2023-04-06T00:37:15;6.00;;;4.67;;
9481;SDS011;4779;48.062;11.672;2023-04-06T00:39:42;4.90;;;4.23;;
9481;SDS011;4779;48.062;11.672;2023-04-06T00:42:10;7.90;;;5.00;;
9481;SDS011;4779;48.062;11.672;2023-04-06T00:44:38;6.37;;;4.90;;
9481;SDS011;4779;48.062;11.672;2023-04-06T00:47:06;6.07;;;4.90;;
9481;SDS011;4779;48.062;11.672;2023-04-06T00:49:33;7.03;;;4.87;;
9481;SDS011;4779;48.062;11.672;2023-04-06T00:52:02;5.57;;;4.97;;
9481;SDS011;4779;48.062;11.672;2023-04-06T00:54:29;5.83;;;4.93;;
9481;SDS011;4779;48.062;11.672;2023-04-06T00:56:56;6.20;;;5.27;;
9481;SDS011;4779;48.062;11.672;2023-04-06T00:59:23;6.67;;;5.70;;
9481;SDS011;4779;48.062;11.672;2023-04-06T01:01:50;5.83;;;5.23;;
9481;SDS011;4779;48.062;11.672;2023-04-06T01:04:18;6.10;;;5.23;;
9481;SDS011;4779;48.062;11.672;2023-04-06T01:06:45;6.10;;;4.83;;
9481;SDS011;4779;48.062;11.672;2023-04-06T01:09:13;6.53;;;5.20;;
9481;SDS011;4779;48.062;11.672;2023-04-06T01:11:40;6.07;;;5.37;;
9481;SDS011;4779;48.062;11.672;2023-04-06T01:14:07;5.73;;;4.87;;
9481;SDS011;4779;48.062;11.672;2023-04-06T01:16:35;6.47;;;4.93;;
9481;SDS011;4779;48.062;11.672;2023-04-06T01:19:06;6.70;;;5.43;;
9481;SDS011;4779;48.062;11.672;2023-04-06T01:21:34;5.50;;;4.70;;
9481;SDS011;4779;48.062;11.672;2023-04-06T01:24:02;6.33;;;5.53;;
9481;SDS011;4779;48.062;11.672;2023-04-06T01:26:30;8.50;;;5.57;;
9481;SDS011;4779;48.062;11.672;2023-04-06T01:28:57;5.87;;;5.13;;
9481;SDS011;4779;48.062;11.672;2023-04-06T02:04:58;5.83;;;5.23;;
9481;SDS011;4779;48.062;11.672;2023-04-06T02:07:25;7.93;;;5.20;;
9481;SDS011;4779;48.062;11.672;2023-04-06T02:09:53;6.10;;;5.37;;
9481;SDS011;4779;48.062;11.672;2023-04-06T02:12:21;6.63;;;5.50;;
9481;SDS011;4779;48.062;11.672;2023-04-06T02:14:48;6.63;;;5.43;;
9481;SDS011;4779;48.062;11.672;2023-04-06T02:17:15;6.50;;;5.47;;
9481;SDS011;4779;48.062;11.672;2023-04-06T02:19:42;8.20;;;5.67;;
9481;SDS011;4779;48.062;11.672;2023-04-06T02:22:11;7.17;;;5.83;;
9481;SDS011;4779;48.062;11.672;2023-04-06T02:24:38;5.63;;;5.00;;
9481;SDS011;4779;48.062;11.672;2023-04-06T02:27:05;6.60;;;5.63;;
9481;SDS011;4779;48.062;11.672;2023-04-06T02:29:32;5.63;;;5.03;;
9481;SDS011;4779;48.062;11.672;2023-04-06T02:31:59;6.53;;;5.00;;
9481;SDS011;4779;48.062;11.672;2023-04-06T02:34:26;7.13;;;4.97;;
9481;SDS011;4779;48.062;11.672;2023-04-06T02:36:53;7.17;;;5.20;;
9481;SDS011;4779;48.062;11.672;2023-04-06T02:39:21;6.57;;;5.23;;
9481;SDS011;4779;48.062;11.672;2023-04-06T02:41:48;5.73;;;4.87;;
9481;SDS011;4779;48.062;11.672;2023-04-06T02:44:15;5.83;;;5.30;;
9481;SDS011;4779;48.062;11.672;2023-04-06T02:46:42;5.67;;;5.07;;
9481;SDS011;4779;48.062;11.672;2023-04-06T02:49:09;6.27;;;5.10;;
9481;SDS011;4779;48.062;11.672;2023-04-06T02:51:36;6.23;;;5.03;;
9481;SDS011;4779;48.062;11.672;2023-04-06T02:54:03;6.03;;;5.43;;
9481;SDS011;4779;48.062;11.672;2023-04-06T02:56:31;5.30;;;4.80;;
9481;SDS011;4779;48.062;11.672;2023-04-06T02:58:58;5.83;;;5.13;;
9481;SDS011;4779;48.062;11.672;2023-04-06T03:01:25;6.67;;;5.20;;
9481;SDS011;4779;48.062;11.672;2023-04-06T03:03:52;5.90;;;4.80;;
9481;SDS011;4779;48.062;11.672;2023-04-06T03:06:19;5.73;;;5.07;;
9481;SDS011;4779;48.062;11.672;2023-04-06T03:08:46;5.80;;;5.20;;
9481;SDS011;4779;48.062;11.672;2023-04-06T03:11:13;6.27;;;5.00;;
9481;SDS011;4779;48.062;11.672;2023-04-06T03:13:42;5.30;;;4.80;;
9481;SDS011;4779;48.062;11.672;2023-04-06T03:16:09;5.77;;;5.10;;
9481;SDS011;4779;48.062;11.672;2023-04-06T03:18:36;5.43;;;4.93;;
9481;SDS011;4779;48.062;11.672;2023-04-06T03:21:03;5.33;;;4.83;;
9481;SDS011;4779;48.062;11.672;2023-04-06T03:23:30;5.93;;;5.33;;
9481;SDS011;4779;48.062;11.672;2023-04-06T03:25:57;6.93;;;5.03;;
9481;SDS011;4779;48.062;11.672;2023-04-06T03:28:24;6.83;;;5.77;;
9481;SDS011;4779;48.062;11.672;2023-04-06T03:30:52;6.40;;;5.10;;
9481;SDS011;4779;48.062;11.672;2023-04-06T03:33:19;6.93;;;5.30;;
9481;SDS011;4779;48.062;11.672;2023-04-06T03:35:46;6.07;;;5.47;;
9481;SDS011;4779;48.062;11.672;2023-04-06T03:38:13;6.50;;;5.47;;
9481;SDS011;4779;48.062;11.672;2023-04-06T03:40:40;5.40;;;4.87;;
9481;SDS011;4779;48.062;11.672;2023-04-06T03:43:07;7.43;;;5.47;;
9481;SDS011;4779;48.062;11.672;2023-04-06T03:45:35;8.07;;;5.80;;
9481;SDS011;4779;48.062;11.672;2023-04-06T03:48:03;6.30;;;5.30;;
9481;SDS011;4779;48.062;11.672;2023-04-06T03:50:31;6.70;;;5.97;;
9481;SDS011;4779;48.062;11.672;2023-04-06T03:52:58;6.73;;;5.70;;
9481;SDS011;4779;48.062;11.672;2023-04-06T03:55:26;8.13;;;6.67;;
9481;SDS011;4779;48.062;11.672;2023-04-06T03:57:53;16.20;;;14.00;;
9481;SDS011;4779;48.062;11.672;2023-04-06T04:00:20;59.67;;;53.17;;
9481;SDS011;4779;48.062;11.672;2023-04-06T04:02:47;32.97;;;29.40;;
9481;SDS011;4779;48.062;11.672;2023-04-06T04:05:16;19.83;;;17.73;;
9481;SDS011;4779;48.062;11.672;2023-04-06T04:07:43;8.67;;;7.77;;
9481;SDS011;4779;48.062;11.672;2023-04-06T04:10:10;7.07;;;6.33;;
9481;SDS011;4779;48.062;11.672;2023-04-06T04:12:37;7.33;;;5.67;;
9481;SDS011;4779;48.062;11.672;2023-04-06T04:15:04;6.97;;;5.47;;
9481;SDS011;4779;48.062;11.672;2023-04-06T04:17:32;6.70;;;5.70;;
9481;SDS011;4779;48.062;11.672;2023-04-06T04:19:59;7.50;;;6.10;;
9481;SDS011;4779;48.062;11.672;2023-04-06T04:22:27;9.13;;;6.80;;
9481;SDS011;4779;48.062;11.672;2023-04-06T04:24:54;7.40;;;6.60;;
9481;SDS011;4779;48.062;11.672;2023-04-06T04:27:21;7.53;;;6.50;;
9481;SDS011;4779;48.062;11.672;2023-04-06T04:29:48;8.47;;;7.67;;
9481;SDS011;4779;48.062;11.672;2023-04-06T04:32:15;8.73;;;7.43;;
9481;SDS011;4779;48.062;11.672;2023-04-06T04:34:42;10.50;;;7.17;;
9481;SDS011;4779;48.062;11.672;2023-04-06T04:37:09;8.23;;;7.07;;
9481;SDS011;4779;48.062;11.672;2023-04-06T04:39:38;8.87;;;7.00;;
9481;SDS011;4779;48.062;11.672;2023-04-06T04:42:05;8.80;;;7.40;;
9481;SDS011;4779;48.062;11.672;2023-04-06T04:44:32;9.00;;;8.10;;
9481;SDS011;4779;48.062;11.672;2023-04-06T04:46:59;9.30;;;8.33;;
9481;SDS011;4779;48.062;11.672;2023-04-06T04:49:26;8.87;;;7.97;;
9481;SDS011;4779;48.062;11.672;2023-04-06T04:51:53;9.10;;;7.63;;
9481;SDS011;4779;48.062;11.672;2023-04-06T04:54:20;10.37;;;8.00;;
9481;SDS011;4779;48.062;11.672;2023-04-06T04:56:49;9.50;;;7.43;;
9481;SDS011;4779;48.062;11.672;2023-04-06T04:59:16;11.07;;;8.00;;
9481;SDS011;4779;48.062;11.672;2023-04-06T05:01:43;7.90;;;7.10;;
9481;SDS011;4779;48.062;11.672;2023-04-06T05:04:10;11.23;;;7.50;;
9481;SDS011;4779;48.062;11.672;2023-04-06T05:06:37;7.73;;;6.57;;
9481;SDS011;4779;48.062;11.672;2023-04-06T05:09:04;7.10;;;6.17;;
9481;SDS011;4779;48.062;11.672;2023-04-06T05:11:31;9.83;;;6.47;;
9481;SDS011;4779;48.062;11.672;2023-04-06T05:14:00;8.63;;;7.50;;
9481;SDS011;4779;48.062;11.672;2023-04-06T05:16:27;9.63;;;7.60;;
9481;SDS011;4779;48.062;11.672;2023-04-06T05:18:54;9.60;;;7.90;;
9481;SDS011;4779;48.062;11.672;2023-04-06T05:21:21;9.33;;;7.90;;
9481;SDS011;4779;48.062;11.672;2023-04-06T05:23:48;13.13;;;9.20;;
9481;SDS011;4779;48.062;11.672;2023-04-06T05:26:15;13.27;;;11.50;;
9481;SDS011;4779;48.062;11.672;2023-04-06T05:28:42;23.43;;;17.97;;
9481;SDS011;4779;48.062;11.672;2023-04-06T05:31:11;24.70;;;18.33;;
9481;SDS011;4779;48.062;11.672;2023-04-06T05:33:39;21.40;;;16.00;;
9481;SDS011;4779;48.062;11.672;2023-04-06T05:36:07;14.70;;;11.10;;
9481;SDS011;4779;48.062;11.672;2023-04-06T05:38:34;12.97;;;9.53;;
9481;SDS011;4779;48.062;11.672;2023-04-06T05:41:01;9.63;;;7.37;;
9481;SDS011;4779;48.062;11.672;2023-04-06T05:43:28;8.07;;;6.73;;
9481;SDS011;4779;48.062;11.672;2023-04-06T05:45:55;7.23;;;6.53;;
9481;SDS011;4779;48.062;11.672;2023-04-06T05:48:23;7.17;;;6.10;;
9481;SDS011;4779;48.062;11.672;2023-04-06T05:50:51;8.37;;;6.40;;
9481;SDS011;4779;48.062;11.672;2023-04-06T05:53:18;7.53;;;5.87;;
9481;SDS011;4779;48.062;11.672;2023-04-06T05:55:46;10.40;;;6.13;;
9481;SDS011;4779;48.062;11.672;2023-04-06T05:58:13;10.47;;;6.40;;
9481;SDS011;4779;48.062;11.672;2023-04-06T06:00:40;9.90;;;6.27;;
9481;SDS011;4779;48.062;11.672;2023-04-06T06:03:07;9.07;;;6.10;;
9481;SDS011;4779;48.062;11.672;2023-04-06T06:05:36;7.70;;;5.87;;
9481;SDS011;4779;48.062;11.672;2023-04-06T06:08:03;8.37;;;5.80;;
9481;SDS011;4779;48.062;11.672;2023-04-06T06:10:30;6.93;;;6.03;;
9481;SDS011;4779;48.062;11.672;2023-04-06T06:12:57;6.73;;;5.83;;
9481;SDS011;4779;48.062;11.672;2023-04-06T06:15:24;8.00;;;6.30;;
9481;SDS011;4779;48.062;11.672;2023-04-06T06:17:51;8.30;;;6.00;;
9481;SDS011;4779;48.062;11.672;2023-04-06T06:20:18;7.33;;;6.63;;
9481;SDS011;4779;48.062;11.672;2023-04-06T06:22:46;9.53;;;8.30;;
9481;SDS011;4779;48.062;11.672;2023-04-06T06:25:13;11.57;;;7.53;;
9481;SDS011;4779;48.062;11.672;2023-04-06T06:27:40;8.67;;;7.13;;
9481;SDS011;4779;48.062;11.672;2023-04-06T06:30:08;7.50;;;6.77;;
9481;SDS011;4779;48.062;11.672;2023-04-06T06:32:35;9.47;;;6.97;;
9481;SDS011;4779;48.062;11.672;2023-04-06T06:35:02;12.87;;;7.00;;
9481;SDS011;4779;48.062;11.672;2023-04-06T06:37:30;9.50;;;7.17;;
9481;SDS011;4779;48.062;11.672;2023-04-06T06:39:59;8.03;;;6.40;;
9481;SDS011;4779;48.062;11.672;2023-04-06T06:42:26;7.57;;;6.00;;
9481;SDS011;4779;48.062;11.672;2023-04-06T06:44:53;7.20;;;5.50;;
9481;SDS011;4779;48.062;11.672;2023-04-06T06:47:20;8.90;;;6.67;;
9481;SDS011;4779;48.062;11.672;2023-04-06T06:49:47;9.20;;;6.47;;
9481;SDS011;4779;48.062;11.672;2023-04-06T06:52:14;6.97;;;6.27;;
9481;SDS011;4779;48.062;11.672;2023-04-06T06:54:41;7.10;;;5.93;;
9481;SDS011;4779;48.062;11.672;2023-04-06T06:57:10;8.17;;;6.07;;
9481;SDS011;4779;48.062;11.672;2023-04-06T06:59:37;7.73;;;5.83;;
9481;SDS011;4779;48.062;11.672;2023-04-06T07:02:04;6.67;;;5.93;;
9481;SDS011;4779;48.062;11.672;2023-04-06T07:04:31;7.77;;;6.40;;
9481;SDS011;4779;48.062;11.672;2023-04-06T07:06:58;9.07;;;6.10;;
9481;SDS011;4779;48.062;11.672;2023-04-06T07:09:26;6.80;;;5.83;;
9481;SDS011;4779;48.062;11.672;2023-04-06T07:11:53;6.77;;;5.77;;
9481;SDS011;4779;48.062;11.672;2023-04-06T07:14:23;7.53;;;6.20;;
9481;SDS011;4779;48.062;11.672;2023-04-06T07:16:50;9.10;;;6.33;;
9481;SDS011;4779;48.062;11.672;2023-04-06T07:19:17;6.77;;;6.00;;
9481;SDS011;4779;48.062;11.672;2023-04-06T07:21:44;7.33;;;6.50;;
9481;SDS011;4779;48.062;11.672;2023-04-06T07:24:11;6.57;;;5.97;;
9481;SDS011;4779;48.062;11.672;2023-04-06T07:26:38;8.73;;;6.57;;
9481;SDS011;4779;48.062;11.672;2023-04-06T07:29:05;6.70;;;6.00;;
9481;SDS011;4779;48.062;11.672;2023-04-06T07:31:33;6.83;;;6.13;;
9481;SDS011;4779;48.062;11.672;2023-04-06T07:34:01;7.00;;;6.30;;
9481;SDS011;4779;48.062;11.672;2023-04-06T07:36:28;6.97;;;6.27;;
9481;SDS011;4779;48.062;11.672;2023-04-06T07:38:55;6.80;;;6.10;;
9481;SDS011;4779;48.062;11.672;2023-04-06T07:41:21;6.97;;;6.20;;
9481;SDS011;4779;48.062;11.672;2023-04-06T07:43:49;10.23;;;6.80;;
9481;SDS011;4779;48.062;11.672;2023-04-06T07:46:16;7.10;;;5.87;;
9481;SDS011;4779;48.062;11.672;2023-04-06T07:48:44;9.60;;;6.37;;
9481;SDS011;4779;48.062;11.672;2023-04-06T07:51:11;6.30;;;5.70;;
9481;SDS011;4779;48.062;11.672;2023-04-06T07:53:40;6.63;;;5.70;;
9481;SDS011;4779;48.062;11.672;2023-04-06T07:56:07;6.77;;;6.00;;
9481;SDS011;4779;48.062;11.672;2023-04-06T07:58:34;7.97;;;5.90;;
9481;SDS011;4779;48.062;11.672;2023-04-06T08:01:01;7.87;;;5.93;;
9481;SDS011;4779;48.062;11.672;2023-04-06T08:03:28;6.43;;;5.80;;
9481;SDS011;4779;48.062;11.672;2023-04-06T08:05:56;7.27;;;5.40;;
9481;SDS011;4779;48.062;11.672;2023-04-06T08:08:23;8.27;;;5.80;;
9481;SDS011;4779;48.062;11.672;2023-04-06T08:10:50;6.37;;;5.67;;
9481;SDS011;4779;48.062;11.672;2023-04-06T08:13:17;6.67;;;5.90;;
9481;SDS011;4779;48.062;11.672;2023-04-06T08:15:44;6.30;;;5.70;;
9481;SDS011;4779;48.062;11.672;2023-04-06T08:18:12;8.63;;;6.20;;
9481;SDS011;4779;48.062;11.672;2023-04-06T08:20:39;7.47;;;6.30;;
9481;SDS011;4779;48.062;11.672;2023-04-06T08:23:07;8.17;;;7.17;;
9481;SDS011;4779;48.062;11.672;2023-04-06T08:25:36;7.10;;;6.40;;
9481;SDS011;4779;48.062;11.672;2023-04-06T08:28:03;7.33;;;6.40;;
9481;SDS011;4779;48.062;11.672;2023-04-06T08:30:30;7.33;;;6.60;;
9481;SDS011;4779;48.062;11.672;2023-04-06T08:32:58;7.30;;;6.10;;
9481;SDS011;4779;48.062;11.672;2023-04-06T08:35:25;7.07;;;6.37;;
9481;SDS011;4779;48.062;11.672;2023-04-06T08:37:52;8.23;;;6.70;;
9481;SDS011;4779;48.062;11.672;2023-04-06T08:40:21;7.30;;;6.60;;
9481;SDS011;4779;48.062;11.672;2023-04-06T08:42:49;7.83;;;6.33;;
9481;SDS011;4779;48.062;11.672;2023-04-06T08:45:18;7.03;;;6.37;;
9481;SDS011;4779;48.062;11.672;2023-04-06T08:47:46;7.53;;;6.23;;
9481;SDS011;4779;48.062;11.672;2023-04-06T08:50:14;6.80;;;6.20;;
9481;SDS011;4779;48.062;11.672;2023-04-06T08:52:43;6.97;;;6.07;;
9481;SDS011;4779;48.062;11.672;2023-04-06T08:55:12;6.53;;;5.87;;
9481;SDS011;4779;48.062;11.672;2023-04-06T08:57:41;7.73;;;6.40;;
9481;SDS011;4779;48.062;11.672;2023-04-06T09:00:09;6.30;;;5.70;;
9481;SDS011;4779;48.062;11.672;2023-04-06T09:02:38;6.90;;;6.10;;
9481;SDS011;4779;48.062;11.672;2023-04-06T09:05:07;6.90;;;6.13;;
9481;SDS011;4779;48.062;11.672;2023-04-06T09:07:34;9.03;;;6.33;;
9481;SDS011;4779;48.062;11.672;2023-04-06T09:10:02;7.77;;;6.73;;
9481;SDS011;4779;48.062;11.672;2023-04-06T09:12:30;9.43;;;7.20;;
9481;SDS011;4779;48.062;11.672;2023-04-06T09:15:00;8.13;;;6.93;;
9481;SDS011;4779;48.062;11.672;2023-04-06T09:17:28;7.93;;;6.90;;
9481;SDS011;4779;48.062;11.672;2023-04-06T09:19:57;8.03;;;6.93;;
9481;SDS011;4779;48.062;11.672;2023-04-06T09:22:25;6.37;;;5.70;;
9481;SDS011;4779;48.062;11.672;2023-04-06T09:25:01;7.07;;;6.37;;
9481;SDS011;4779;48.062;11.672;2023-04-06T09:27:31;7.30;;;6.60;;
9481;SDS011;4779;48.062;11.672;2023-04-06T09:30:07;7.10;;;6.40;;
9481;SDS011;4779;48.062;11.672;2023-04-06T09:32:45;7.23;;;6.27;;
9481;SDS011;4779;48.062;11.672;2023-04-06T09:35:14;7.53;;;6.23;;
9481;SDS011;4779;48.062;11.672;2023-04-06T09:37:41;7.73;;;6.77;;
9481;SDS011;4779;48.062;11.672;2023-04-06T09:40:08;8.27;;;6.90;;
9481;SDS011;4779;48.062;11.672;2023-04-06T09:42:36;6.80;;;6.20;;
9481;SDS011;4779;48.062;11.672;2023-04-06T09:45:03;7.53;;;6.80;;
9481;SDS011;4779;48.062;11.672;2023-04-06T09:47:32;7.43;;;6.73;;
9481;SDS011;4779;48.062;11.672;2023-04-06T09:50:03;8.43;;;7.27;;
9481;SDS011;4779;48.062;11.672;2023-04-06T09:52:31;7.37;;;6.60;;
9481;SDS011;4779;48.062;11.672;2023-04-06T09:55:01;7.53;;;6.73;;
9481;SDS011;4779;48.062;11.672;2023-04-06T09:57:32;7.40;;;6.70;;
9481;SDS011;4779;48.062;11.672;2023-04-06T10:00:03;8.07;;;7.27;;
9481;SDS011;4779;48.062;11.672;2023-04-06T10:02:38;7.57;;;6.37;;
9481;SDS011;4779;48.062;11.672;2023-04-06T10:05:13;7.63;;;6.90;;
9481;SDS011;4779;48.062;11.672;2023-04-06T10:07:45;7.33;;;6.53;;
9481;SDS011;4779;48.062;11.672;2023-04-06T10:10:15;7.53;;;6.80;;
9481;SDS011;4779;48.062;11.672;2023-04-06T10:12:43;7.20;;;6.50;;
9481;SDS011;4779;48.062;11.672;2023-04-06T10:15:11;7.87;;;7.07;;
9481;SDS011;4779;48.062;11.672;2023-04-06T10:17:40;7.53;;;6.80;;
9481;SDS011;4779;48.062;11.672;2023-04-06T10:20:08;7.30;;;6.60;;
9481;SDS011;4779;48.062;11.672;2023-04-06T10:22:41;7.60;;;6.90;;
9481;SDS011;4779;48.062;11.672;2023-04-06T10:25:15;7.67;;;6.97;;
9481;SDS011;4779;48.062;11.672;2023-04-06T10:27:42;7.97;;;7.17;;
9481;SDS011;4779;48.062;11.672;2023-04-06T10:30:10;7.60;;;6.90;;
9481;SDS011;4779;48.062;11.672;2023-04-06T10:32:38;7.67;;;6.97;;
9481;SDS011;4779;48.062;11.672;2023-04-06T10:35:11;7.97;;;7.17;;
9481;SDS011;4779;48.062;11.672;2023-04-06T10:37:49;7.93;;;7.13;;
9481;SDS011;4779;48.062;11.672;2023-04-06T10:40:18;7.90;;;6.13;;
9481;SDS011;4779;48.062;11.672;2023-04-06T10:42:50;8.50;;;6.70;;
9481;SDS011;4779;48.062;11.672;2023-04-06T10:45:20;7.70;;;6.90;;
9481;SDS011;4779;48.062;11.672;2023-04-06T10:47:50;6.93;;;6.23;;
9481;SDS011;4779;48.062;11.672;2023-04-06T10:50:19;8.33;;;6.60;;
9481;SDS011;4779;48.062;11.672;2023-04-06T10:52:46;7.87;;;7.07;;
9481;SDS011;4779;48.062;11.672;2023-04-06T10:55:24;7.57;;;6.77;;
9481;SDS011;4779;48.062;11.672;2023-04-06T10:57:52;8.50;;;7.50;;
9481;SDS011;4779;48.062;11.672;2023-04-06T11:00:20;7.83;;;6.63;;
9481;SDS011;4779;48.062;11.672;2023-04-06T11:02:47;7.53;;;6.67;;
9481;SDS011;4779;48.062;11.672;2023-04-06T11:05:15;9.53;;;6.30;;
9481;SDS011;4779;48.062;11.672;2023-04-06T11:07:43;7.47;;;6.67;;
9481;SDS011;4779;48.062;11.672;2023-04-06T11:10:10;7.20;;;6.50;;
9481;SDS011;4779;48.062;11.672;2023-04-06T11:12:37;7.43;;;6.00;;
9481;SDS011;4779;48.062;11.672;2023-04-06T11:15:05;7.50;;;6.70;;
9481;SDS011;4779;48.062;11.672;2023-04-06T11:17:33;7.00;;;6.30;;
9481;SDS011;4779;48.062;11.672;2023-04-06T11:20:02;7.20;;;6.50;;
9481;SDS011;4779;48.062;11.672;2023-04-06T11:22:31;7.07;;;6.10;;
9481;SDS011;4779;48.062;11.672;2023-04-06T11:25:04;7.30;;;6.60;;
9481;SDS011;4779;48.062;11.672;2023-04-06T11:27:31;7.47;;;6.77;;
9481;SDS011;4779;48.062;11.672;2023-04-06T11:29:59;7.73;;;7.03;;
9481;SDS011;4779;48.062;11.672;2023-04-06T11:32:27;7.17;;;5.83;;
9481;SDS011;4779;48.062;11.672;2023-04-06T11:34:54;7.37;;;6.53;;
9481;SDS011;4779;48.062;11.672;2023-04-06T11:37:25;6.83;;;6.23;;
9481;SDS011;4779;48.062;11.672;2023-04-06T11:39:55;7.87;;;7.07;;
9481;SDS011;4779;48.062;11.672;2023-04-06T11:42:22;7.27;;;6.57;;
9481;SDS011;4779;48.062;11.672;2023-04-06T11:44:50;7.47;;;6.77;;
9481;SDS011;4779;48.062;11.672;2023-04-06T11:47:18;6.97;;;6.27;;
9481;SDS011;4779;48.062;11.672;2023-04-06T11:49:47;7.93;;;7.00;;
9481;SDS011;4779;48.062;11.672;2023-04-06T11:52:15;7.20;;;6.47;;
9481;SDS011;4779;48.062;11.672;2023-04-06T11:54:43;9.13;;;6.77;;
9481;SDS011;4779;48.062;11.672;2023-04-06T11:57:12;7.10;;;6.37;;
9481;SDS011;4779;48.062;11.672;2023-04-06T11:59:40;7.90;;;6.70;;
9481;SDS011;4779;48.062;11.672;2023-04-06T12:02:07;7.30;;;6.60;;
9481;SDS011;4779;48.062;11.672;2023-04-06T12:04:35;7.13;;;6.30;;
9481;SDS011;4779;48.062;11.672;2023-04-06T12:07:02;6.90;;;6.17;;
9481;SDS011;4779;48.062;11.672;2023-04-06T12:09:30;6.93;;;6.23;;
9481;SDS011;4779;48.062;11.672;2023-04-06T12:11:57;7.20;;;5.63;;
9481;SDS011;4779;48.062;11.672;2023-04-06T12:14:26;6.93;;;5.70;;
9481;SDS011;4779;48.062;11.672;2023-04-06T12:16:55;6.17;;;5.57;;
9481;SDS011;4779;48.062;11.672;2023-04-06T12:19:22;6.27;;;5.67;;
9481;SDS011;4779;48.062;11.672;2023-04-06T12:21:51;6.70;;;6.10;;
9481;SDS011;4779;48.062;11.672;2023-04-06T12:24:19;6.60;;;5.90;;
9481;SDS011;4779;48.062;11.672;2023-04-06T12:26:46;6.13;;;5.53;;
9481;SDS011;4779;48.062;11.672;2023-04-06T12:29:13;6.33;;;5.67;;
9481;SDS011;4779;48.062;11.672;2023-04-06T12:31:41;6.40;;;5.80;;
9481;SDS011;4779;48.062;11.672;2023-04-06T12:34:10;6.27;;;5.67;;
9481;SDS011;4779;48.062;11.672;2023-04-06T12:36:37;7.17;;;6.47;;
9481;SDS011;4779;48.062;11.672;2023-04-06T12:39:04;6.53;;;5.87;;
9481;SDS011;4779;48.062;11.672;2023-04-06T12:41:31;7.13;;;5.93;;
9481;SDS011;4779;48.062;11.672;2023-04-06T12:43:59;6.70;;;5.97;;
9481;SDS011;4779;48.062;11.672;2023-04-06T12:46:27;6.57;;;5.97;;
9481;SDS011;4779;48.062;11.672;2023-04-06T12:48:57;6.50;;;5.90;;
9481;SDS011;4779;48.062;11.672;2023-04-06T12:51:24;6.33;;;5.73;;
9481;SDS011;4779;48.062;11.672;2023-04-06T12:53:51;6.40;;;5.80;;
9481;SDS011;4779;48.062;11.672;2023-04-06T12:56:18;6.63;;;6.00;;
9481;SDS011;4779;48.062;11.672;2023-04-06T12:58:47;6.30;;;5.73;;
9481;SDS011;4779;48.062;11.672;2023-04-06T13:01:14;6.20;;;5.60;;
9481;SDS011;4779;48.062;11.672;2023-04-06T13:03:42;5.97;;;5.17;;
9481;SDS011;4779;48.062;11.672;2023-04-06T13:06:10;6.23;;;5.63;;
9481;SDS011;4779;48.062;11.672;2023-04-06T13:08:38;5.33;;;4.83;;
9481;SDS011;4779;48.062;11.672;2023-04-06T13:11:05;5.50;;;5.00;;
9481;SDS011;4779;48.062;11.672;2023-04-06T13:13:34;6.07;;;5.47;;
9481;SDS011;4779;48.062;11.672;2023-04-06T13:16:02;7.70;;;5.23;;
9481;SDS011;4779;48.062;11.672;2023-04-06T13:18:30;6.27;;;5.67;;
9481;SDS011;4779;48.062;11.672;2023-04-06T13:20:58;6.23;;;5.63;;
9481;SDS011;4779;48.062;11.672;2023-04-06T13:23:26;6.23;;;5.63;;
9481;SDS011;4779;48.062;11.672;2023-04-06T13:25:56;6.20;;;5.60;;
9481;SDS011;4779;48.062;11.672;2023-04-06T13:28:25;5.57;;;5.00;;
9481;SDS011;4779;48.062;11.672;2023-04-06T13:30:53;5.80;;;5.20;;
9481;SDS011;4779;48.062;11.672;2023-04-06T13:33:20;6.47;;;5.23;;
9481;SDS011;4779;48.062;11.672;2023-04-06T13:35:47;5.87;;;4.87;;
9481;SDS011;4779;48.062;11.672;2023-04-06T13:38:14;5.53;;;5.03;;
9481;SDS011;4779;48.062;11.672;2023-04-06T13:40:43;5.77;;;5.17;;
9481;SDS011;4779;48.062;11.672;2023-04-06T13:43:10;6.53;;;4.90;;
9481;SDS011;4779;48.062;11.672;2023-04-06T13:45:37;5.73;;;5.17;;
9481;SDS011;4779;48.062;11.672;2023-04-06T13:48:05;5.87;;;5.37;;
9481;SDS011;4779;48.062;11.672;2023-04-06T13:50:32;5.50;;;5.00;;
9481;SDS011;4779;48.062;11.672;2023-04-06T13:53:00;5.30;;;4.80;;
9481;SDS011;4779;48.062;11.672;2023-04-06T13:55:27;5.50;;;5.00;;
9481;SDS011;4779;48.062;11.672;2023-04-06T13:57:56;6.30;;;5.63;;
9481;SDS011;4779;48.062;11.672;2023-04-06T14:00:23;5.63;;;5.13;;
9481;SDS011;4779;48.062;11.672;2023-04-06T14:02:50;5.97;;;5.17;;
9481;SDS011;4779;48.062;11.672;2023-04-06T14:05:19;5.73;;;5.13;;
9481;SDS011;4779;48.062;11.672;2023-04-06T14:07:46;5.60;;;5.10;;
9481;SDS011;4779;48.062;11.672;2023-04-06T14:10:13;4.97;;;4.57;;
9481;SDS011;4779;48.062;11.672;2023-04-06T14:12:40;5.47;;;4.90;;
9481;SDS011;4779;48.062;11.672;2023-04-06T14:15:10;5.90;;;5.27;;
9481;SDS011;4779;48.062;11.672;2023-04-06T14:17:38;5.47;;;4.93;;
9481;SDS011;4779;48.062;11.672;2023-04-06T14:20:05;5.80;;;5.20;;
9481;SDS011;4779;48.062;11.672;2023-04-06T14:22:38;5.57;;;5.07;;
9481;SDS011;4779;48.062;11.672;2023-04-06T14:25:06;5.63;;;4.90;;
9481;SDS011;4779;48.062;11.672;2023-04-06T14:27:33;6.13;;;5.53;;
9481;SDS011;4779;48.062;11.672;2023-04-06T14:30:00;7.73;;;5.20;;
9481;SDS011;4779;48.062;11.672;2023-04-06T14:32:29;5.57;;;5.07;;
9481;SDS011;4779;48.062;11.672;2023-04-06T14:34:57;5.33;;;4.80;;
9481;SDS011;4779;48.062;11.672;2023-04-06T14:37:24;5.83;;;5.20;;
9481;SDS011;4779;48.062;11.672;2023-04-06T14:39:53;5.60;;;5.10;;
9481;SDS011;4779;48.062;11.672;2023-04-06T14:42:20;5.73;;;4.97;;
9481;SDS011;4779;48.062;11.672;2023-04-06T14:44:47;5.70;;;4.80;;
9481;SDS011;4779;48.062;11.672;2023-04-06T14:47:15;5.60;;;5.00;;
9481;SDS011;4779;48.062;11.672;2023-04-06T14:49:46;5.60;;;5.00;;
9481;SDS011;4779;48.062;11.672;2023-04-06T14:52:13;5.67;;;5.13;;
9481;SDS011;4779;48.062;11.672;2023-04-06T14:54:40;5.27;;;4.77;;
9481;SDS011;4779;48.062;11.672;2023-04-06T14:57:07;5.53;;;4.70;;
9481;SDS011;4779;48.062;11.672;2023-04-06T14:59:34;5.72;;;4.55;;
9481;SDS011;4779;48.062;11.672;2023-04-06T15:02:01;4.90;;;4.40;;
9481;SDS011;4779;48.062;11.672;2023-04-06T15:04:28;4.40;;;4.00;;
9481;SDS011;4779;48.062;11.672;2023-04-06T15:06:57;4.97;;;4.13;;
9481;SDS011;4779;48.062;11.672;2023-04-06T15:09:24;4.57;;;4.00;;
9481;SDS011;4779;48.062;11.672;2023-04-06T15:11:51;4.53;;;4.13;;
9481;SDS011;4779;48.062;11.672;2023-04-06T15:14:18;4.97;;;4.47;;
9481;SDS011;4779;48.062;11.672;2023-04-06T15:16:45;4.90;;;4.43;;
9481;SDS011;4779;48.062;11.672;2023-04-06T15:19:12;4.63;;;4.23;;
9481;SDS011;4779;48.062;11.672;2023-04-06T15:21:39;5.13;;;4.40;;
9481;SDS011;4779;48.062;11.672;2023-04-06T15:24:07;4.57;;;4.17;;
9481;SDS011;4779;48.062;11.672;2023-04-06T15:26:35;4.33;;;3.93;;
9481;SDS011;4779;48.062;11.672;2023-04-06T15:29:03;5.10;;;4.40;;
9481;SDS011;4779;48.062;11.672;2023-04-06T15:31:30;5.77;;;4.87;;
9481;SDS011;4779;48.062;11.672;2023-04-06T15:33:58;6.43;;;4.47;;
9481;SDS011;4779;48.062;11.672;2023-04-06T15:36:26;5.00;;;4.50;;